METAR Data
IDs: Format: Raw Decoded Include TAF

Data at: 2019 UTC 23 Sep 2018

METAR for:PADU (Dutch Harbor/Madsen, AK, US)
Text:PADU 231956Z 32003KT 10SM FEW025 BKN070 08/05 A2977 RMK AO2 SLP085 T00830050
Temperature: 8.3°C ( 47°F)
Dewpoint: 5.0°C ( 41°F) [RH = 80%]
Pressure (altimeter):29.77 inches Hg (1008.2 mb) [Sea level pressure: 1008.5 mb]
Winds:from the NW (320 degrees) at 3 MPH (3 knots; 1.5 m/s)
Visibility:10 or more sm (16+ km)
Ceiling:7000 feet AGL
Clouds: few clouds at 2500 feet AGL, broken clouds at 7000 feet AGL
Text:PADU 231856Z 00000KT 10SM BKN070 07/04 A2978 RMK AO2 SLP089 T00720044
Temperature: 7.2°C ( 45°F)
Dewpoint: 4.4°C ( 40°F) [RH = 82%]
Pressure (altimeter):29.78 inches Hg (1008.5 mb) [Sea level pressure: 1008.9 mb]
Winds:calm
Visibility:10 or more sm (16+ km)
Ceiling:7000 feet AGL
Clouds: broken clouds at 7000 feet AGL
Text:PADU 231756Z 00000KT 10SM BKN060 06/04 A2979 RMK AO2 SLP091 T00610039 10072 20050 56008
Temperature: 6.1°C ( 43°F)
Dewpoint: 3.9°C ( 39°F) [RH = 86%]
Pressure (altimeter):29.79 inches Hg (1008.9 mb) [Sea level pressure: 1009.1 mb]
Winds:calm
Visibility:10 or more sm (16+ km)
Ceiling:6000 feet AGL
Clouds: broken clouds at 6000 feet AGL
Text:PADU 231656Z 00000KT 10SM BKN060 06/04 A2979 RMK AO2 SLP091 T00610039
Temperature: 6.1°C ( 43°F)
Dewpoint: 3.9°C ( 39°F) [RH = 86%]
Pressure (altimeter):29.79 inches Hg (1008.9 mb) [Sea level pressure: 1009.1 mb]
Winds:calm
Visibility:10 or more sm (16+ km)
Ceiling:6000 feet AGL
Clouds: broken clouds at 6000 feet AGL
Text:PADU 231556Z 00000KT 10SM BKN055 06/03 A2980 RMK AO2 SLP094 T00560033
Temperature: 5.6°C ( 42°F)
Dewpoint: 3.3°C ( 38°F) [RH = 85%]
Pressure (altimeter):29.80 inches Hg (1009.2 mb) [Sea level pressure: 1009.4 mb]
Winds:calm
Visibility:10 or more sm (16+ km)
Ceiling:5500 feet AGL
Clouds: broken clouds at 5500 feet AGL
Text:PADU 231456Z 00000KT 10SM FEW050 06/04 A2981 RMK AO2 SLP099 T00610039 58010
Temperature: 6.1°C ( 43°F)
Dewpoint: 3.9°C ( 39°F) [RH = 86%]
Pressure (altimeter):29.81 inches Hg (1009.6 mb) [Sea level pressure: 1009.9 mb]
Winds:calm
Visibility:10 or more sm (16+ km)
Ceiling:at least 12,000 feet AGL
Clouds: few clouds at 5000 feet AGL

TAF for:PADU (Dutch Harbor/Madsen, AK, US) issued at 1723 UTC 23 Sep 2018
Text:PADU 231723Z 2318/2418 VRB06KT P6SM -SHRA BKN050
Forecast period:1800 UTC 23 September 2018 to 1800 UTC 24 September 2018
Forecast type:FROM: standard forecast or significant change
Winds:variable direction winds at 7 MPH (6 knots; 3.1 m/s)
Visibility:6 or more sm (10+ km)
Ceiling:5000 feet AGL
Clouds: broken clouds at 5000 feet AGL
Weather:-SHRA (light rain showers)